Time;durP1;ratioP1;P1;durP2;ratioP2;P2;SDS_P1;SDS_P2;PMS_P1;PMS_P2;Temp;Humidity;BMP_temperature;BMP_pressure;BME280_temperature;BME280_humidity;BME280_pressure;Samples;Min_cycle;Max_cycle;Signal;HPM_P1;HPM_P2
2021/11/03 00:00:09;;;;;;;0.40;0.20;;;7.30;99.90;;;;;;5091414;28;20382;-70
2021/11/03 00:02:35;;;;;;;0.40;0.20;;;7.40;99.90;;;;;;5091544;28;20382;-70
2021/11/03 00:05:01;;;;;;;0.40;0.20;;;7.50;99.90;;;;;;5090739;28;20474;-71
2021/11/03 00:07:29;;;;;;;0.40;0.30;;;7.30;99.90;;;;;;5091377;28;20378;-71
2021/11/03 00:09:57;;;;;;;0.40;0.20;;;7.40;99.90;;;;;;5090825;28;20374;-71
2021/11/03 00:12:23;;;;;;;0.40;0.20;;;7.30;99.90;;;;;;5091308;28;20378;-71
2021/11/03 00:14:48;;;;;;;0.40;0.30;;;7.20;99.90;;;;;;5089644;28;20409;-71
2021/11/03 00:17:14;;;;;;;0.40;0.20;;;7.20;99.90;;;;;;5091636;28;20370;-71
2021/11/03 00:19:40;;;;;;;0.40;0.20;;;7.10;99.90;;;;;;5090805;28;20850;-72
2021/11/03 00:22:05;;;;;;;0.40;0.20;;;7.20;99.90;;;;;;5091397;28;20382;-71
2021/11/03 00:24:34;;;;;;;0.40;0.30;;;7.20;99.90;;;;;;5090658;28;20386;-71
2021/11/03 00:27:00;;;;;;;0.40;0.20;;;7.40;99.90;;;;;;5090571;28;21133;-71
2021/11/03 00:29:26;;;;;;;0.40;0.20;;;7.50;99.90;;;;;;5091474;28;20473;-70
2021/11/03 00:31:52;;;;;;;0.40;0.20;;;7.40;99.90;;;;;;5090552;28;20458;-71
2021/11/03 00:34:17;;;;;;;0.40;0.20;;;7.20;99.90;;;;;;5091215;28;20451;-71
2021/11/03 00:36:43;;;;;;;0.40;0.30;;;7.20;99.90;;;;;;5090714;28;20454;-71
2021/11/03 00:39:09;;;;;;;0.40;0.20;;;7.20;99.90;;;;;;5091221;28;20819;-71
2021/11/03 00:41:35;;;;;;;0.40;0.30;;;7.10;99.90;;;;;;5090961;28;20394;-71
2021/11/03 00:44:01;;;;;;;0.40;0.30;;;7.10;99.90;;;;;;5090603;28;20752;-71
2021/11/03 00:46:26;;;;;;;0.40;0.20;;;7.20;99.90;;;;;;5091252;28;20381;-71
2021/11/03 00:48:52;;;;;;;0.40;0.20;;;7.30;99.90;;;;;;5090367;28;20461;-71
2021/11/03 00:51:18;;;;;;;0.40;0.20;;;7.20;99.90;;;;;;5090759;28;20380;-71
2021/11/03 00:53:44;;;;;;;0.40;0.30;;;7.30;99.90;;;;;;5090496;28;20442;-71
2021/11/03 00:56:11;;;;;;;0.40;0.20;;;7.20;99.90;;;;;;5090080;28;20418;-71
2021/11/03 00:58:37;;;;;;;0.40;0.30;;;7.40;99.90;;;;;;5091372;28;20435;-71
2021/11/03 01:01:03;;;;;;;0.40;0.30;;;7.10;99.90;;;;;;5090471;28;20451;-71
2021/11/03 01:03:29;;;;;;;0.40;0.20;;;7.20;99.90;;;;;;5091064;28;20473;-71
2021/11/03 01:05:54;;;;;;;0.40;0.30;;;7.10;99.90;;;;;;5090407;28;20847;-71
2021/11/03 01:08:20;;;;;;;0.40;0.30;;;7.10;99.90;;;;;;5091274;28;20842;-71
2021/11/03 01:10:49;;;;;;;0.40;0.22;;;7.30;99.90;;;;;;5090358;28;20427;-71
2021/11/03 01:13:18;;;;;;;0.40;0.20;;;7.30;99.90;;;;;;5090816;28;20441;-71
2021/11/03 01:15:45;;;;;;;0.40;0.20;;;7.40;99.90;;;;;;5090427;28;20447;-72
2021/11/03 01:18:10;;;;;;;0.40;0.20;;;7.30;99.90;;;;;;5090464;28;20370;-71
2021/11/03 01:20:37;;;;;;;0.40;0.20;;;7.30;99.90;;;;;;5091000;28;20431;-71
2021/11/03 01:23:04;;;;;;;0.40;0.20;;;7.40;99.90;;;;;;5089749;28;20878;-72
2021/11/03 01:25:30;;;;;;;0.40;0.20;;;7.40;99.90;;;;;;5090864;28;20366;-71
2021/11/03 01:27:56;;;;;;;0.40;0.30;;;7.40;99.90;;;;;;5090806;28;20390;-71
2021/11/03 01:30:23;;;;;;;0.40;0.20;;;7.40;99.90;;;;;;5090697;28;20370;-71
2021/11/03 01:32:49;;;;;;;0.40;0.20;;;7.50;99.90;;;;;;5090212;28;20456;-71
2021/11/03 01:35:16;;;;;;;0.40;0.20;;;7.50;99.90;;;;;;5093104;28;20378;-71
2021/11/03 01:37:42;;;;;;;0.40;0.20;;;7.50;99.90;;;;;;5094876;28;20378;-71
2021/11/03 01:40:12;;;;;;;0.40;0.30;;;7.60;99.90;;;;;;5093756;28;20561;-71
2021/11/03 01:42:38;;;;;;;0.40;0.20;;;7.50;99.90;;;;;;5094641;28;20456;-71
2021/11/03 01:45:05;;;;;;;0.40;0.20;;;7.50;99.90;;;;;;5093812;28;20386;-71
2021/11/03 01:48:07;;;;;;;0.40;0.40;;;7.60;99.90;;;;;;5094459;28;20386;-71
2021/11/03 01:50:41;;;;;;;0.40;0.30;;;7.70;99.90;;;;;;5061321;28;20382;-71
2021/11/03 01:53:24;;;;;;;0.40;0.20;;;7.80;99.90;;;;;;5093434;28;20450;-71
2021/11/03 01:56:02;;;;;;;0.40;0.30;;;7.80;99.90;;;;;;5093922;28;20374;-71
2021/11/03 01:58:39;;;;;;;0.40;0.20;;;7.90;99.90;;;;;;5094347;28;20370;-71
2021/11/03 02:01:06;;;;;;;0.40;0.30;;;8.00;99.90;;;;;;5093071;28;20410;-71
2021/11/03 02:03:32;;;;;;;0.40;0.30;;;8.00;99.90;;;;;;5094228;28;20382;-71
2021/11/03 02:06:08;;;;;;;0.40;0.20;;;8.00;99.90;;;;;;5093481;28;20382;-71
2021/11/03 02:08:38;;;;;;;0.40;0.20;;;8.10;99.90;;;;;;5094087;28;20865;-71
2021/11/03 02:11:04;;;;;;;0.40;0.20;;;8.10;99.90;;;;;;5093547;28;20726;-71
2021/11/03 02:13:30;;;;;;;0.40;0.20;;;8.20;99.90;;;;;;5093985;28;20401;-71
2021/11/03 02:15:57;;;;;;;0.40;0.20;;;8.20;99.90;;;;;;5092999;28;20459;-71
2021/11/03 02:18:23;;;;;;;0.40;0.20;;;8.30;99.90;;;;;;5093555;28;20917;-70
2021/11/03 02:20:51;;;;;;;0.40;0.20;;;8.20;99.90;;;;;;5093141;28;20374;-71
2021/11/03 02:23:30;;;;;;;0.40;0.30;;;8.20;99.90;;;;;;5093617;28;20468;-70
2021/11/03 02:26:02;;;;;;;0.40;0.20;;;8.30;99.90;;;;;;5091899;28;20382;-70
2021/11/03 02:28:29;;;;;;;0.40;0.20;;;8.30;99.90;;;;;;5093877;28;20374;-70
2021/11/03 02:30:54;;;;;;;0.40;0.20;;;8.40;99.90;;;;;;5092900;28;20737;-70
2021/11/03 02:33:23;;;;;;;0.40;0.30;;;8.30;99.90;;;;;;5093530;28;20409;-70
2021/11/03 02:36:03;;;;;;;0.40;0.20;;;8.40;99.90;;;;;;5092752;28;20374;-70
2021/11/03 02:38:42;;;;;;;0.40;0.20;;;8.30;99.90;;;;;;5093070;28;20874;-70
2021/11/03 02:41:10;;;;;;;0.40;0.20;;;8.40;99.90;;;;;;5092655;28;20382;-70
2021/11/03 02:43:51;;;;;;;0.40;0.20;;;8.30;99.90;;;;;;5093331;28;20382;-70
2021/11/03 02:46:18;;;;;;;0.40;0.30;;;8.30;99.90;;;;;;5092279;28;20458;-70
2021/11/03 02:48:44;;;;;;;0.40;0.20;;;8.30;99.90;;;;;;5092772;28;20486;-70
2021/11/03 02:51:22;;;;;;;0.40;0.20;;;8.30;99.90;;;;;;5092058;28;20401;-70
2021/11/03 02:53:54;;;;;;;0.40;0.20;;;8.30;99.90;;;;;;5092868;28;20896;-70
2021/11/03 02:56:23;;;;;;;0.40;0.20;;;8.30;99.90;;;;;;5092941;28;20860;-70
2021/11/03 02:58:50;;;;;;;0.40;0.20;;;8.30;99.90;;;;;;5092438;28;20385;-70
2021/11/03 03:01:30;;;;;;;0.40;0.20;;;8.40;99.90;;;;;;5092702;28;20378;-70
2021/11/03 03:03:57;;;;;;;0.40;0.20;;;8.50;99.90;;;;;;5091590;28;20385;-70
2021/11/03 03:06:30;;;;;;;0.40;0.30;;;8.40;99.90;;;;;;5092610;28;20378;-70
2021/11/03 03:08:58;;;;;;;0.40;0.28;;;8.40;99.90;;;;;;5091964;28;20424;-71
2021/11/03 03:11:26;;;;;;;0.40;0.20;;;8.40;99.90;;;;;;5092333;28;20471;-70
2021/11/03 03:13:52;;;;;;;0.40;0.30;;;8.50;99.90;;;;;;5091628;28;20418;-71
2021/11/03 03:16:19;;;;;;;0.40;0.30;;;8.40;99.90;;;;;;5092342;28;20398;-70
2021/11/03 03:18:45;;;;;;;0.40;0.20;;;8.40;99.90;;;;;;5092776;28;20442;-70
2021/11/03 03:21:12;;;;;;;0.40;0.20;;;8.30;99.90;;;;;;5091040;28;20714;-70
2021/11/03 03:23:39;;;;;;;0.40;0.20;;;8.30;99.90;;;;;;5092023;28;20567;-70
2021/11/03 03:26:05;;;;;;;0.40;0.20;;;8.40;99.90;;;;;;5091383;28;20753;-71
2021/11/03 03:28:31;;;;;;;0.40;0.30;;;8.40;99.90;;;;;;5092182;28;20374;-71
2021/11/03 03:30:57;;;;;;;0.40;0.30;;;8.30;99.90;;;;;;5091419;28;20461;-70
2021/11/03 03:33:23;;;;;;;0.40;0.20;;;8.20;99.90;;;;;;5092170;28;20947;-70
2021/11/03 03:35:48;;;;;;;0.40;0.30;;;8.20;99.90;;;;;;5092146;28;20782;-70
2021/11/03 03:38:14;;;;;;;0.40;0.30;;;8.30;99.90;;;;;;5091075;28;20386;-71
2021/11/03 03:40:40;;;;;;;0.40;0.20;;;8.20;99.90;;;;;;5092284;28;20382;-70
2021/11/03 03:43:06;;;;;;;0.40;0.30;;;8.10;99.90;;;;;;5091007;28;20844;-71
2021/11/03 03:45:32;;;;;;;0.40;0.30;;;8.10;99.90;;;;;;5092034;28;20386;-71
2021/11/03 03:47:57;;;;;;;0.40;0.20;;;8.00;99.90;;;;;;5091378;28;20374;-71
2021/11/03 03:50:23;;;;;;;0.40;0.30;;;8.00;99.90;;;;;;5091617;28;20382;-70
2021/11/03 03:52:49;;;;;;;0.40;0.20;;;7.90;99.90;;;;;;5091389;28;20410;-70
2021/11/03 03:55:14;;;;;;;0.40;0.30;;;8.00;99.90;;;;;;5090857;28;20396;-71
2021/11/03 03:57:40;;;;;;;0.40;0.20;;;7.90;99.90;;;;;;5090847;28;20753;-70
2021/11/03 04:00:10;;;;;;;0.40;0.30;;;7.90;99.90;;;;;;5090801;28;20393;-71
2021/11/03 04:02:36;;;;;;;0.80;0.80;;;7.90;99.90;;;;;;5091739;28;20889;-70
2021/11/03 04:05:02;;;;;;;0.40;0.20;;;8.00;99.90;;;;;;5091030;28;20464;-71
2021/11/03 04:07:28;;;;;;;0.40;0.20;;;8.00;99.90;;;;;;5091629;28;20452;-70
2021/11/03 04:09:54;;;;;;;0.40;0.20;;;8.00;99.90;;;;;;5091275;28;20381;-72
2021/11/03 04:12:19;;;;;;;0.40;0.20;;;7.90;99.90;;;;;;5090977;28;20366;-71
2021/11/03 04:14:45;;;;;;;0.40;0.20;;;7.90;99.90;;;;;;5091244;28;20436;-71
2021/11/03 04:17:10;;;;;;;0.40;0.20;;;7.80;99.90;;;;;;5090720;28;20385;-71
2021/11/03 04:19:36;;;;;;;0.40;0.30;;;7.80;99.90;;;;;;5091116;28;20366;-71
2021/11/03 04:22:03;;;;;;;0.40;0.20;;;7.80;99.90;;;;;;5090329;28;20716;-71
2021/11/03 04:24:28;;;;;;;0.40;0.20;;;7.80;99.90;;;;;;5089658;28;20400;-70
2021/11/03 04:26:54;;;;;;;0.40;0.20;;;7.70;99.90;;;;;;5090944;28;20394;-71
2021/11/03 04:29:21;;;;;;;0.40;0.20;;;7.70;99.90;;;;;;5090403;28;20406;-70
2021/11/03 04:31:47;;;;;;;0.40;0.22;;;7.70;99.90;;;;;;5090963;28;20431;-70
2021/11/03 04:34:13;;;;;;;0.40;0.20;;;7.70;99.90;;;;;;5090196;28;20417;-70
2021/11/03 04:36:39;;;;;;;0.40;0.20;;;7.70;99.90;;;;;;5090806;28;20394;-70
2021/11/03 04:39:07;;;;;;;0.40;0.20;;;7.70;99.90;;;;;;5088720;28;20385;-70
2021/11/03 04:41:34;;;;;;;0.40;0.23;;;7.70;99.90;;;;;;5090830;28;20386;-70
2021/11/03 04:43:59;;;;;;;0.40;0.30;;;7.70;99.90;;;;;;5089772;28;20800;-72
2021/11/03 04:46:25;;;;;;;0.40;0.20;;;7.70;99.90;;;;;;5090651;28;20527;-70
2021/11/03 04:48:51;;;;;;;0.40;0.30;;;7.90;99.90;;;;;;5090013;28;20870;-70
2021/11/03 04:51:17;;;;;;;0.40;0.20;;;7.80;99.90;;;;;;5089446;28;20388;-70
2021/11/03 04:53:43;;;;;;;0.40;0.20;;;7.80;99.90;;;;;;5090690;28;20416;-70
2021/11/03 04:56:10;;;;;;;0.40;0.20;;;7.80;99.90;;;;;;5089227;28;20382;-70
2021/11/03 04:58:36;;;;;;;0.40;0.30;;;7.80;99.90;;;;;;5089156;28;20954;-70
2021/11/03 05:01:02;;;;;;;0.40;0.20;;;7.90;99.90;;;;;;5089500;28;20461;-70
2021/11/03 05:03:29;;;;;;;0.40;0.20;;;7.70;99.90;;;;;;5091049;28;20423;-70
2021/11/03 05:05:55;;;;;;;0.40;0.20;;;7.90;99.90;;;;;;5091082;28;20385;-70
2021/11/03 05:08:22;;;;;;;0.40;0.30;;;7.90;99.90;;;;;;5090040;28;20378;-70
2021/11/03 05:10:47;;;;;;;0.40;0.20;;;7.90;99.90;;;;;;5094139;28;20946;-70
2021/11/03 05:13:13;;;;;;;0.40;0.30;;;7.80;99.90;;;;;;5093626;28;20504;-70
2021/11/03 05:15:39;;;;;;;0.40;0.30;;;7.90;99.90;;;;;;5094780;28;20384;-69
2021/11/03 05:18:05;;;;;;;0.40;0.20;;;7.80;99.90;;;;;;5094055;28;20378;-70
2021/11/03 05:20:30;;;;;;;0.40;0.30;;;7.90;99.90;;;;;;5095070;28;20877;-70
2021/11/03 05:22:57;;;;;;;0.40;0.30;;;8.00;99.90;;;;;;5093182;28;20401;-69
2021/11/03 05:25:25;;;;;;;0.40;0.20;;;8.00;99.90;;;;;;5093987;28;20389;-69
2021/11/03 05:27:52;;;;;;;0.40;0.20;;;8.00;99.90;;;;;;5094853;28;20731;-70
2021/11/03 05:30:19;;;;;;;0.40;0.25;;;8.00;99.90;;;;;;5093831;28;20398;-69
2021/11/03 05:32:45;;;;;;;0.40;0.28;;;8.00;99.90;;;;;;5094427;28;20382;-69
2021/11/03 05:35:11;;;;;;;0.40;0.30;;;8.10;99.90;;;;;;5093744;28;20378;-70
2021/11/03 05:37:37;;;;;;;0.40;0.20;;;8.10;99.90;;;;;;5094165;28;20511;-70
2021/11/03 05:40:07;;;;;;;0.40;0.20;;;8.10;99.90;;;;;;5093568;28;20396;-71
2021/11/03 05:42:33;;;;;;;0.40;0.30;;;8.00;99.90;;;;;;5094328;28;20385;-70
2021/11/03 05:44:58;;;;;;;0.40;0.30;;;8.00;99.90;;;;;;5093120;28;20499;-70
2021/11/03 05:47:27;;;;;;;0.40;0.20;;;8.10;99.90;;;;;;5093989;28;20478;-70
2021/11/03 05:49:54;;;;;;;0.40;0.30;;;8.00;99.90;;;;;;5093841;28;20397;-69
2021/11/03 05:52:20;;;;;;;0.40;0.20;;;8.00;99.90;;;;;;5093276;28;20479;-69
2021/11/03 05:54:46;;;;;;;0.40;0.22;;;7.90;99.90;;;;;;5094195;28;20405;-70
2021/11/03 05:57:27;;;;;;;0.40;0.20;;;7.90;99.90;;;;;;5093285;28;20877;-70
2021/11/03 05:59:54;;;;;;;0.40;0.40;;;7.90;99.90;;;;;;5094199;28;20465;-70
2021/11/03 06:02:21;;;;;;;0.40;0.30;;;7.90;99.90;;;;;;5093254;28;20675;-70
2021/11/03 06:04:47;;;;;;;0.40;0.20;;;8.00;99.90;;;;;;5093955;28;20858;-71
2021/11/03 06:07:13;;;;;;;0.40;0.30;;;8.00;99.90;;;;;;5093334;28;20431;-70
2021/11/03 06:09:39;;;;;;;0.40;0.30;;;8.10;99.90;;;;;;5093789;28;20381;-69
2021/11/03 06:12:06;;;;;;;0.40;0.20;;;8.10;99.90;;;;;;5092965;28;20719;-70
2021/11/03 06:14:32;;;;;;;0.40;0.30;;;8.10;99.90;;;;;;5093707;28;20406;-69
2021/11/03 06:16:58;;;;;;;0.40;0.20;;;8.10;99.90;;;;;;5093384;28;20808;-70
2021/11/03 06:19:25;;;;;;;0.40;0.30;;;8.10;99.90;;;;;;5092870;28;20396;-70
2021/11/03 06:21:52;;;;;;;0.40;0.30;;;8.20;99.90;;;;;;5092743;28;20385;-70
2021/11/03 06:24:18;;;;;;;0.40;0.20;;;8.10;99.90;;;;;;5093062;28;20424;-70
2021/11/03 06:26:43;;;;;;;0.40;0.30;;;8.20;99.90;;;;;;5093023;28;20909;-70
2021/11/03 06:29:09;;;;;;;0.40;0.20;;;8.20;99.90;;;;;;5092369;28;20404;-70
2021/11/03 06:31:35;;;;;;;0.40;0.30;;;8.20;99.90;;;;;;5093347;28;20436;-69
2021/11/03 06:34:02;;;;;;;0.40;0.20;;;8.20;99.90;;;;;;5091948;28;20409;-69
2021/11/03 06:36:28;;;;;;;0.40;0.20;;;8.20;99.90;;;;;;5092853;28;20440;-69
2021/11/03 06:38:54;;;;;;;0.40;0.20;;;8.20;99.90;;;;;;5091932;28;20747;-70
2021/11/03 06:41:21;;;;;;;0.40;0.20;;;8.20;99.90;;;;;;5092065;28;20378;-70
2021/11/03 06:43:46;;;;;;;0.70;0.70;;;8.30;99.90;;;;;;5092404;28;20443;-70
2021/11/03 06:46:12;;;;;;;0.40;0.30;;;8.20;99.90;;;;;;5092692;28;20471;-71
2021/11/03 06:48:39;;;;;;;0.40;0.30;;;8.20;99.90;;;;;;5093109;28;20814;-70
2021/11/03 06:51:08;;;;;;;0.40;0.23;;;8.20;99.90;;;;;;5092454;28;20492;-72
2021/11/03 06:53:34;;;;;;;0.40;0.25;;;8.30;99.90;;;;;;5092923;28;20409;-71
2021/11/03 06:56:00;;;;;;;0.40;0.20;;;8.30;99.90;;;;;;5090947;28;20919;-71
2021/11/03 06:58:29;;;;;;;0.50;0.40;;;8.30;99.90;;;;;;5091585;28;20390;-72
2021/11/03 07:00:55;;;;;;;0.40;0.25;;;8.30;99.90;;;;;;5092815;28;20466;-71
2021/11/03 07:03:23;;;;;;;0.40;0.30;;;8.30;99.90;;;;;;5091892;28;20389;-71
2021/11/03 07:05:50;;;;;;;0.40;0.30;;;8.30;99.90;;;;;;5092397;28;20383;-71
2021/11/03 07:08:17;;;;;;;0.40;0.30;;;8.30;99.90;;;;;;5091911;28;20370;-71
2021/11/03 07:10:47;;;;;;;0.40;0.40;;;8.30;99.90;;;;;;5074452;28;20461;-71
2021/11/03 07:13:16;;;;;;;0.40;0.30;;;8.40;99.90;;;;;;5091682;28;20410;-72
2021/11/03 07:15:42;;;;;;;0.40;0.30;;;8.40;99.90;;;;;;5092403;28;20730;-71
2021/11/03 07:18:30;;;;;;;0.40;0.30;;;8.40;99.90;;;;;;5091687;28;20379;-72
2021/11/03 07:20:55;;;;;;;0.40;0.20;;;8.40;99.90;;;;;;5091942;28;20394;-70
2021/11/03 07:23:24;;;;;;;0.40;0.30;;;8.40;99.90;;;;;;5091357;28;20401;-70
2021/11/03 07:25:50;;;;;;;0.40;0.30;;;8.40;99.90;;;;;;5092222;28;20374;-70
2021/11/03 07:28:16;;;;;;;0.40;0.20;;;8.40;99.90;;;;;;5091423;28;20469;-70
2021/11/03 07:30:43;;;;;;;0.40;0.20;;;8.40;99.90;;;;;;5092409;28;20472;-70
2021/11/03 07:33:11;;;;;;;0.40;0.20;;;8.40;99.90;;;;;;5089924;28;20406;-72
2021/11/03 07:35:38;;;;;;;0.40;0.30;;;8.40;99.90;;;;;;5091826;28;20406;-70
2021/11/03 07:38:05;;;;;;;0.40;0.20;;;8.50;99.90;;;;;;5092116;28;20378;-69
2021/11/03 07:40:38;;;;;;;0.40;0.40;;;8.60;99.90;;;;;;5090953;28;20439;-69
2021/11/03 07:43:05;;;;;;;0.40;0.30;;;8.80;99.90;;;;;;5091623;28;20468;-69
2021/11/03 07:45:32;;;;;;;0.40;0.20;;;8.80;99.90;;;;;;5091057;28;20415;-69
2021/11/03 07:48:00;;;;;;;0.40;0.20;;;8.90;99.90;;;;;;5091823;28;20386;-69
2021/11/03 07:50:28;;;;;;;0.60;0.60;;;8.80;99.90;;;;;;5091068;28;20382;-69
2021/11/03 07:52:54;;;;;;;0.40;0.30;;;8.60;99.90;;;;;;5091015;28;20405;-69
2021/11/03 07:55:20;;;;;;;0.90;0.50;;;8.50;99.90;;;;;;5089153;28;20838;-69
2021/11/03 07:57:45;;;;;;;0.40;0.40;;;8.50;99.90;;;;;;5090958;28;20508;-69
2021/11/03 08:00:21;;;;;;;0.40;0.30;;;8.60;99.90;;;;;;5090947;28;20393;-71
2021/11/03 08:02:47;;;;;;;5.20;1.50;;;8.60;99.90;;;;;;5091738;28;20806;-70
2021/11/03 08:05:13;;;;;;;0.40;0.20;;;8.70;99.90;;;;;;5080301;28;20489;-70
2021/11/03 08:07:38;;;;;;;0.40;0.30;;;8.70;99.90;;;;;;5076220;28;20461;-70
2021/11/03 08:10:13;;;;;;;0.90;0.60;;;8.60;99.90;;;;;;5079799;28;20441;-69
2021/11/03 08:12:39;;;;;;;0.40;0.20;;;8.40;99.90;;;;;;5078485;28;20449;-69
2021/11/03 08:15:05;;;;;;;0.40;0.30;;;8.70;99.90;;;;;;5086798;28;20730;-69
2021/11/03 08:17:32;;;;;;;0.40;0.20;;;8.50;99.90;;;;;;5080090;28;20402;-69
2021/11/03 08:20:03;;;;;;;0.90;0.90;;;8.40;99.90;;;;;;5078342;28;20383;-69
2021/11/03 08:22:31;;;;;;;0.40;0.20;;;8.20;99.90;;;;;;5078778;28;21004;-69
2021/11/03 08:25:00;;;;;;;0.40;0.30;;;8.20;99.90;;;;;;5075713;28;20399;-70
2021/11/03 08:27:26;;;;;;;0.47;0.47;;;8.20;99.90;;;;;;5075933;28;20868;-70
2021/11/03 08:29:53;;;;;;;0.40;0.30;;;8.20;99.90;;;;;;5072800;28;20396;-69
2021/11/03 08:32:23;;;;;;;0.40;0.30;;;8.30;99.90;;;;;;5079188;28;20397;-70
2021/11/03 08:34:49;;;;;;;0.80;0.80;;;8.40;99.90;;;;;;5085998;28;20408;-69
2021/11/03 08:37:18;;;;;;;1.00;0.80;;;8.40;99.90;;;;;;5070001;28;20376;-70
2021/11/03 08:39:49;;;;;;;0.40;0.40;;;8.50;99.90;;;;;;5070550;28;20577;-70
2021/11/03 08:42:15;;;;;;;0.40;0.40;;;8.60;99.90;;;;;;5070041;28;20372;-70
2021/11/03 08:44:41;;;;;;;0.40;0.28;;;8.70;99.90;;;;;;5069603;28;20395;-70
2021/11/03 08:47:08;;;;;;;0.40;0.30;;;8.60;99.90;;;;;;5082516;28;20390;-70
2021/11/03 08:49:35;;;;;;;0.40;0.20;;;8.60;99.90;;;;;;5089865;28;20374;-70
2021/11/03 08:52:04;;;;;;;0.40;0.20;;;8.80;99.90;;;;;;5090784;28;20481;-69
2021/11/03 08:54:29;;;;;;;0.40;0.20;;;8.80;99.90;;;;;;5089745;28;20409;-70
2021/11/03 08:56:55;;;;;;;0.40;0.30;;;9.00;99.90;;;;;;5090654;28;20404;-70
2021/11/03 08:59:21;;;;;;;0.40;0.30;;;9.00;99.90;;;;;;5089829;28;20387;-70
2021/11/03 09:01:46;;;;;;;0.40;0.40;;;9.10;99.90;;;;;;5090988;28;20447;-70
2021/11/03 09:04:12;;;;;;;0.40;0.20;;;9.20;99.90;;;;;;5090365;28;20388;-70
2021/11/03 09:06:38;;;;;;;0.40;0.28;;;9.10;99.90;;;;;;5091258;28;20468;-70
2021/11/03 09:09:05;;;;;;;0.40;0.30;;;9.20;99.90;;;;;;5089847;28;20374;-69
2021/11/03 09:11:32;;;;;;;0.40;0.30;;;9.40;99.90;;;;;;5090323;28;21210;-69
2021/11/03 09:13:58;;;;;;;0.40;0.30;;;9.40;99.90;;;;;;5091069;28;20789;-69
2021/11/03 09:16:25;;;;;;;0.40;0.30;;;9.60;99.90;;;;;;5090815;28;20698;-69
2021/11/03 09:18:50;;;;;;;0.40;0.30;;;9.60;99.90;;;;;;5091041;28;20380;-69
2021/11/03 09:21:17;;;;;;;0.40;0.30;;;9.60;99.90;;;;;;5090563;28;20469;-69
2021/11/03 09:23:45;;;;;;;0.40;0.20;;;9.70;99.90;;;;;;5090950;28;20386;-69
2021/11/03 09:26:12;;;;;;;2.10;1.10;;;9.70;99.90;;;;;;5090937;28;20481;-70
2021/11/03 09:28:39;;;;;;;0.40;0.30;;;9.70;99.90;;;;;;5091122;28;20382;-69
2021/11/03 09:31:06;;;;;;;0.40;0.20;;;9.70;99.90;;;;;;5090897;28;20477;-69
2021/11/03 09:33:36;;;;;;;0.40;0.20;;;9.60;99.90;;;;;;5090243;28;20417;-69
2021/11/03 09:36:04;;;;;;;0.50;0.50;;;9.50;99.90;;;;;;5090844;28;20389;-69
2021/11/03 09:38:32;;;;;;;0.40;0.20;;;9.60;99.90;;;;;;5089983;28;20370;-68
2021/11/03 09:41:07;;;;;;;0.40;0.30;;;9.50;99.90;;;;;;5090827;28;20370;-70
2021/11/03 09:43:37;;;;;;;0.40;0.30;;;9.40;99.90;;;;;;5088965;28;20549;-70
2021/11/03 09:46:16;;;;;;;0.40;0.30;;;9.40;99.90;;;;;;5090625;28;20374;-70
2021/11/03 09:48:43;;;;;;;0.40;0.20;;;9.50;99.90;;;;;;5090619;28;20381;-70
2021/11/03 09:51:17;;;;;;;0.40;0.25;;;9.50;99.90;;;;;;5090372;28;20863;-69
2021/11/03 09:53:53;;;;;;;0.40;0.30;;;9.50;99.90;;;;;;5090878;28;20405;-71
2021/11/03 09:56:23;;;;;;;0.40;0.20;;;9.40;99.90;;;;;;5092586;28;20451;-71
2021/11/03 09:59:16;;;;;;;0.60;0.50;;;9.40;99.90;;;;;;5094566;28;20397;-70
2021/11/03 10:01:55;;;;;;;0.40;0.20;;;9.40;99.90;;;;;;5094391;28;20378;-70
2021/11/03 10:04:32;;;;;;;0.40;0.30;;;9.30;99.90;;;;;;5096746;28;20730;-70
2021/11/03 10:07:26;;;;;;;0.40;0.30;;;9.30;99.90;;;;;;5114068;28;20701;-70
2021/11/03 10:09:54;;;;;;;0.40;0.20;;;9.30;99.90;;;;;;5089951;28;20421;-69
2021/11/03 10:12:20;;;;;;;0.40;0.30;;;9.30;99.90;;;;;;5101611;28;20395;-72
2021/11/03 10:14:47;;;;;;;0.40;0.30;;;9.30;99.90;;;;;;5096358;28;20898;-70
2021/11/03 10:17:26;;;;;;;0.40;0.30;;;9.20;99.90;;;;;;5102196;28;20373;-69
2021/11/03 10:19:54;;;;;;;0.40;0.30;;;9.20;99.90;;;;;;5099263;28;20393;-68
2021/11/03 10:22:38;;;;;;;0.40;0.30;;;9.10;99.90;;;;;;5093262;28;20371;-68
2021/11/03 10:25:17;;;;;;;0.40;0.20;;;9.10;99.90;;;;;;5105791;28;20714;-70
2021/11/03 10:27:55;;;;;;;0.40;0.20;;;9.00;99.90;;;;;;5106021;28;20419;-69
2021/11/03 10:30:48;;;;;;;0.40;0.20;;;8.90;99.90;;;;;;5096401;28;20704;-70
2021/11/03 10:33:22;;;;;;;0.40;0.30;;;8.90;99.90;;;;;;5113824;28;20441;-71
2021/11/03 10:36:21;;;;;;;0.40;0.30;;;9.00;99.90;;;;;;5100714;28;20366;-70
2021/11/03 10:38:57;;;;;;;0.40;0.30;;;9.00;99.90;;;;;;5082025;28;20375;-69
2021/11/03 10:41:30;;;;;;;0.40;0.30;;;8.90;99.90;;;;;;5103361;28;20497;-70
2021/11/03 10:44:24;;;;;;;0.40;0.30;;;8.90;99.90;;;;;;5107441;28;20379;-69
2021/11/03 10:46:56;;;;;;;0.40;0.30;;;8.80;99.90;;;;;;5072991;28;20368;-70
2021/11/03 10:49:43;;;;;;;0.40;0.20;;;8.80;99.90;;;;;;5097915;28;20898;-70
2021/11/03 10:52:20;;;;;;;0.40;0.20;;;8.90;99.90;;;;;;5093868;28;20398;-69
2021/11/03 10:54:53;;;;;;;0.40;0.20;;;8.90;99.90;;;;;;5072821;28;20721;-70
2021/11/03 10:57:34;;;;;;;0.40;0.20;;;8.90;99.90;;;;;;5088393;28;20847;-70
2021/11/03 11:00:17;;;;;;;0.40;0.20;;;8.90;99.90;;;;;;5101735;28;20500;-69
2021/11/03 11:02:55;;;;;;;0.40;0.30;;;9.00;99.90;;;;;;5109725;28;20389;-69
2021/11/03 11:05:24;;;;;;;0.40;0.30;;;9.00;99.90;;;;;;5101346;28;20377;-70
2021/11/03 11:07:54;;;;;;;0.40;0.20;;;9.00;99.90;;;;;;5099536;28;20890;-69
2021/11/03 11:10:28;;;;;;;0.40;0.20;;;8.90;99.90;;;;;;5104594;28;20371;-70
2021/11/03 11:12:56;;;;;;;0.40;0.20;;;8.90;99.90;;;;;;5097624;28;20848;-69
2021/11/03 11:15:37;;;;;;;0.40;0.20;;;8.90;99.90;;;;;;5103385;28;20378;-71
2021/11/03 11:18:31;;;;;;;0.40;0.30;;;8.90;99.90;;;;;;5107571;28;20376;-70
2021/11/03 11:21:01;;;;;;;0.40;0.20;;;8.80;99.90;;;;;;5113210;28;20372;-69
2021/11/03 11:23:38;;;;;;;0.40;0.30;;;9.00;99.90;;;;;;5102626;28;20899;-69
2021/11/03 11:26:26;;;;;;;0.40;0.20;;;9.00;99.90;;;;;;5107457;28;20484;-69
2021/11/03 11:28:59;;;;;;;0.40;0.30;;;8.90;99.90;;;;;;5108102;28;20488;-69
2021/11/03 11:31:58;;;;;;;0.40;0.20;;;8.90;99.90;;;;;;5103987;28;20380;-69
2021/11/03 11:34:48;;;;;;;0.40;0.30;;;8.90;99.90;;;;;;5095388;28;20397;-69
2021/11/03 11:37:43;;;;;;;0.40;0.20;;;8.90;99.90;;;;;;5104955;28;20427;-69
2021/11/03 11:40:37;;;;;;;0.40;0.20;;;8.90;99.90;;;;;;5099482;28;20859;-69
2021/11/03 11:43:12;;;;;;;0.40;0.30;;;8.80;99.90;;;;;;5086449;28;20381;-70
2021/11/03 11:45:38;;;;;;;0.40;0.20;;;8.90;99.90;;;;;;5090158;28;20427;-70
2021/11/03 11:48:22;;;;;;;0.40;0.20;;;8.90;99.90;;;;;;5092324;28;20425;-70
2021/11/03 11:50:54;;;;;;;0.40;0.30;;;8.80;99.90;;;;;;5092385;28;20435;-69
2021/11/03 11:53:41;;;;;;;0.40;0.30;;;8.80;99.90;;;;;;5091138;28;20410;-71
2021/11/03 11:56:10;;;;;;;0.40;0.30;;;8.90;99.90;;;;;;5085952;28;20399;-70
2021/11/03 11:58:38;;;;;;;0.40;0.20;;;9.00;99.90;;;;;;5080844;28;20385;-70
2021/11/03 12:01:13;;;;;;;0.40;0.20;;;9.10;99.90;;;;;;5077921;28;20382;-70
2021/11/03 12:03:56;;;;;;;0.40;0.20;;;9.00;99.90;;;;;;5091468;28;20435;-70
2021/11/03 12:07:03;;;;;;;0.40;0.20;;;9.00;99.90;;;;;;5091168;28;20730;-70
2021/11/03 12:09:31;;;;;;;0.40;0.20;;;9.00;99.90;;;;;;5090998;28;20378;-70
2021/11/03 12:11:57;;;;;;;0.40;0.20;;;9.00;99.90;;;;;;5088795;28;20386;-70
2021/11/03 12:14:45;;;;;;;0.40;0.20;;;9.00;99.90;;;;;;5081799;28;20866;-70
2021/11/03 12:17:50;;;;;;;0.40;0.20;;;9.10;99.90;;;;;;5086626;28;20831;-70
2021/11/03 12:20:24;;;;;;;0.40;0.20;;;9.30;99.90;;;;;;5086615;28;20835;-70
2021/11/03 12:23:28;;;;;;;0.40;0.20;;;9.30;99.90;;;;;;5083223;28;20469;-69
2021/11/03 12:25:54;;;;;;;0.40;0.30;;;9.30;99.90;;;;;;5083522;28;20382;-70
2021/11/03 12:28:44;;;;;;;0.40;0.30;;;9.30;99.90;;;;;;5091099;28;20366;-70
2021/11/03 12:31:19;;;;;;;0.40;0.30;;;9.30;99.90;;;;;;5086333;28;20378;-70
2021/11/03 12:34:03;;;;;;;0.40;0.30;;;9.30;99.90;;;;;;5090504;28;20406;-67
2021/11/03 12:36:33;;;;;;;0.40;0.20;;;9.20;99.90;;;;;;5090627;28;20373;-71
2021/11/03 12:39:04;;;;;;;0.40;0.20;;;9.20;99.90;;;;;;5091467;28;20378;-70
2021/11/03 12:41:51;;;;;;;0.40;0.30;;;9.20;99.90;;;;;;5090252;28;20373;-68
2021/11/03 12:44:27;;;;;;;0.40;0.30;;;9.10;99.90;;;;;;5091230;28;20389;-70
2021/11/03 12:46:53;;;;;;;0.40;0.30;;;9.10;99.90;;;;;;5083528;28;20366;-70
2021/11/03 12:49:23;;;;;;;0.43;0.28;;;9.10;99.90;;;;;;5090951;28;20848;-71
2021/11/03 12:51:53;;;;;;;0.40;0.20;;;9.10;99.90;;;;;;5082612;28;20389;-69
2021/11/03 12:54:26;;;;;;;0.40;0.20;;;9.10;99.90;;;;;;5090930;28;20766;-69
2021/11/03 12:57:19;;;;;;;0.40;0.30;;;9.10;99.90;;;;;;5078798;28;20429;-69
2021/11/03 13:00:12;;;;;;;0.40;0.30;;;9.10;99.90;;;;;;5086995;28;20677;-70
2021/11/03 13:02:45;;;;;;;0.40;0.20;;;9.20;99.90;;;;;;5090271;28;20443;-69
2021/11/03 13:05:44;;;;;;;0.70;0.70;;;9.20;99.90;;;;;;5093327;28;20734;-69
2021/11/03 13:08:43;;;;;;;0.40;0.30;;;9.40;99.90;;;;;;5059670;28;20439;-69
2021/11/03 13:11:47;;;;;;;0.40;0.20;;;9.40;99.90;;;;;;5082096;28;20851;-69
2021/11/03 13:14:24;;;;;;;0.40;0.30;;;9.40;99.90;;;;;;5089839;28;20493;-69